createdAt,value
2022-10-09T00:01:15.078Z,18.30
2022-10-09T00:03:47.416Z,14.70
2022-10-09T00:06:21.202Z,17.80
2022-10-09T00:08:52.604Z,26.45
2022-10-09T00:11:26.464Z,22.02
2022-10-09T00:13:57.869Z,23.23
2022-10-09T00:16:28.939Z,24.67
2022-10-09T00:19:00.245Z,28.23
2022-10-09T00:21:34.001Z,29.77
2022-10-09T00:24:06.547Z,24.73
2022-10-09T00:26:37.159Z,27.10
2022-10-09T00:29:07.850Z,30.65
2022-10-09T00:31:38.221Z,28.63
2022-10-09T00:34:09.258Z,19.33
2022-10-09T00:36:39.767Z,24.65
2022-10-09T00:39:10.464Z,18.58
2022-10-09T00:41:40.839Z,18.75
2022-10-09T00:44:47.882Z,23.63
2022-10-09T00:47:24.099Z,14.88
2022-10-09T00:49:58.663Z,28.75
2022-10-09T00:52:29.371Z,22.85
2022-10-09T00:55:01.470Z,20.45
2022-10-09T00:57:34.370Z,16.52
2022-10-09T01:00:09.730Z,26.00
2022-10-09T01:02:40.641Z,23.75
2022-10-09T01:05:12.514Z,17.77
2022-10-09T01:07:59.105Z,21.05
2022-10-09T01:10:49.073Z,14.80
2022-10-09T01:13:27.412Z,17.25
2022-10-09T01:16:08.029Z,18.77
2022-10-09T01:19:22.413Z,13.32
2022-10-09T01:22:11.078Z,19.35
2022-10-09T01:25:00.211Z,22.15
2022-10-09T01:27:31.333Z,15.27
2022-10-09T01:30:10.425Z,12.40
2022-10-09T01:32:45.610Z,14.05
2022-10-09T01:35:17.352Z,16.58
2022-10-09T01:37:49.568Z,14.40
2022-10-09T01:40:21.208Z,18.13
2022-10-09T01:42:51.877Z,11.40
2022-10-09T01:45:22.490Z,12.77
2022-10-09T01:47:52.891Z,32.22
2022-10-09T01:50:33.038Z,23.77
2022-10-09T01:53:11.740Z,16.92
2022-10-09T01:56:09.476Z,14.77
2022-10-09T01:58:50.633Z,19.52
2022-10-09T02:01:28.439Z,14.75
2022-10-09T02:04:02.018Z,13.88
2022-10-09T02:06:33.892Z,15.65
2022-10-09T02:09:05.915Z,15.05
2022-10-09T02:11:39.558Z,13.57
2022-10-09T02:14:10.511Z,19.00
2022-10-09T02:16:50.186Z,18.40
2022-10-09T02:19:40.476Z,14.20
2022-10-09T02:22:32.347Z,10.10
2022-10-09T02:25:06.647Z,14.57
2022-10-09T02:27:37.925Z,7.70
2022-10-09T02:30:10.773Z,13.40
2022-10-09T02:32:41.290Z,17.33
2022-10-09T02:35:11.927Z,14.82
2022-10-09T02:37:42.323Z,14.55
2022-10-09T02:40:13.689Z,12.88
2022-10-09T02:42:44.052Z,15.55
2022-10-09T02:47:44.201Z,12.32
2022-10-09T02:52:44.508Z,13.02
2022-10-09T02:55:15.149Z,11.45
2022-10-09T02:57:45.772Z,19.23
2022-10-09T03:02:46.177Z,15.80
2022-10-09T03:05:17.068Z,15.00
2022-10-09T03:07:52.666Z,16.27
2022-10-09T03:10:23.473Z,10.57
2022-10-09T03:12:54.074Z,17.48
2022-10-09T03:15:24.726Z,18.42
2022-10-09T03:17:55.115Z,17.23
2022-10-09T03:20:25.728Z,20.92
2022-10-09T03:22:57.418Z,23.70
2022-10-09T03:25:28.024Z,20.55
2022-10-09T03:27:58.333Z,15.98
2022-10-09T03:30:28.923Z,18.73
2022-10-09T03:32:59.408Z,13.73
2022-10-09T03:35:29.758Z,21.08
2022-10-09T03:40:30.225Z,17.17
2022-10-09T03:43:00.797Z,28.13
2022-10-09T03:45:31.080Z,19.40
2022-10-09T03:48:01.593Z,22.67
2022-10-09T03:50:32.183Z,16.65
2022-10-09T03:53:02.649Z,19.70
2022-10-09T03:58:02.732Z,14.20
2022-10-09T04:00:34.061Z,20.88
2022-10-09T04:03:05.389Z,25.65
2022-10-09T04:05:37.379Z,18.95
2022-10-09T04:08:07.920Z,14.45
2022-10-09T04:10:38.393Z,22.33
2022-10-09T04:13:08.903Z,12.88
2022-10-09T04:15:39.522Z,13.38
2022-10-09T04:18:09.980Z,15.57
2022-10-09T04:20:40.631Z,15.25
2022-10-09T04:23:10.938Z,8.70
2022-10-09T04:28:11.238Z,10.05
2022-10-09T04:33:13.125Z,5.00
2022-10-09T04:35:48.595Z,8.93
2022-10-09T04:38:18.995Z,4.57
2022-10-09T04:43:30.007Z,1.75
2022-10-09T04:46:00.705Z,5.68
2022-10-09T04:48:31.196Z,9.65
2022-10-09T04:51:01.718Z,3.95
2022-10-09T04:53:32.109Z,2.40
2022-10-09T04:58:37.689Z,12.20
2022-10-09T05:01:27.914Z,10.60
2022-10-09T05:03:58.626Z,4.13
2022-10-09T05:06:29.248Z,2.53
2022-10-09T05:08:59.661Z,8.27
2022-10-09T05:14:00.455Z,1.67
2022-10-09T05:16:40.779Z,1.33
2022-10-09T05:19:23.395Z,6.60
2022-10-09T05:21:53.691Z,0.10
2022-10-09T05:24:24.286Z,1.23
2022-10-09T05:26:54.778Z,0.57
2022-10-09T05:29:25.057Z,2.35
2022-10-09T05:34:25.461Z,0.20
2022-10-09T05:39:25.639Z,0.75
2022-10-09T05:44:26.677Z,0.10
2022-10-09T05:49:26.974Z,0.13
2022-10-09T05:51:57.530Z,2.40
2022-10-09T05:54:28.626Z,3.38
2022-10-09T05:56:59.033Z,0.63
2022-10-09T05:59:29.541Z,0.63
2022-10-09T06:04:31.183Z,0.57
2022-10-09T06:09:31.314Z,0.20
2022-10-09T06:14:31.932Z,4.05
2022-10-09T06:19:33.347Z,1.10
2022-10-09T06:22:03.800Z,0.15
2022-10-09T06:27:04.016Z,12.23
2022-10-09T06:29:34.497Z,4.35
2022-10-09T06:32:04.995Z,6.03
2022-10-09T06:37:05.066Z,0.88
2022-10-09T06:42:05.950Z,2.28
2022-10-09T06:44:53.395Z,5.63
2022-10-09T06:49:53.635Z,1.10
2022-10-09T06:52:24.156Z,5.50
2022-10-09T06:57:24.050Z,0.10
2022-10-09T06:59:54.534Z,0.52
2022-10-09T07:04:54.752Z,5.47
2022-10-09T07:07:25.219Z,0.28
2022-10-09T07:12:26.175Z,8.35
2022-10-09T07:14:56.808Z,2.20
2022-10-09T07:17:28.870Z,4.57
2022-10-09T07:19:59.302Z,10.68
2022-10-09T07:22:29.514Z,1.88
2022-10-09T07:24:59.943Z,0.75
2022-10-09T07:27:30.363Z,3.83
2022-10-09T07:30:02.092Z,0.28
2022-10-09T07:32:32.425Z,3.30
2022-10-09T07:35:02.729Z,0.90
2022-10-09T07:37:33.224Z,1.17
2022-10-09T07:42:33.465Z,3.63
2022-10-09T07:45:03.887Z,2.15
2022-10-09T07:50:04.068Z,1.10
2022-10-09T07:52:34.427Z,0.65
2022-10-09T07:55:04.815Z,4.18
2022-10-09T07:57:35.269Z,2.38
2022-10-09T08:02:41.919Z,0.20
2022-10-09T08:07:42.295Z,3.30
2022-10-09T08:12:42.549Z,1.25
2022-10-09T08:15:14.423Z,2.75
2022-10-09T08:17:44.868Z,8.57
2022-10-09T08:22:44.739Z,1.05
2022-10-09T08:25:15.170Z,1.73
2022-10-09T08:27:45.581Z,1.75
2022-10-09T08:30:15.919Z,3.60
2022-10-09T08:32:46.663Z,1.75
2022-10-09T08:35:17.388Z,0.55
2022-10-09T08:40:23.357Z,1.67
2022-10-09T08:43:02.127Z,1.35
2022-10-09T08:45:34.306Z,1.80
2022-10-09T08:48:17.876Z,1.38
2022-10-09T08:50:54.910Z,2.33
2022-10-09T08:53:36.073Z,0.10
2022-10-09T08:56:11.615Z,0.47
2022-10-09T08:58:44.610Z,4.38
2022-10-09T09:01:39.296Z,0.65
2022-10-09T09:04:33.880Z,0.68
2022-10-09T09:07:14.576Z,4.18
2022-10-09T09:09:50.838Z,0.13
2022-10-09T09:13:04.986Z,2.33
2022-10-09T09:15:57.537Z,1.13
2022-10-09T09:18:44.789Z,5.13
2022-10-09T09:21:17.954Z,9.20
2022-10-09T09:23:50.158Z,1.70
2022-10-09T09:26:25.006Z,0.60
2022-10-09T09:29:03.118Z,2.55
2022-10-09T09:31:38.651Z,6.53
2022-10-09T09:34:20.876Z,6.15
2022-10-09T09:36:58.658Z,10.32
2022-10-09T09:40:30.995Z,0.50
2022-10-09T09:42:25.512Z,0.40
2022-10-09T09:47:37.944Z,0.52
2022-10-09T09:50:23.455Z,1.40
2022-10-09T09:53:02.881Z,1.77
2022-10-09T09:55:35.647Z,0.60
2022-10-09T09:58:09.799Z,1.02
2022-10-09T10:00:40.256Z,1.08
2022-10-09T10:05:47.001Z,0.22
2022-10-09T10:08:17.477Z,3.83
2022-10-09T10:10:49.341Z,7.13
2022-10-09T10:13:23.293Z,0.10
2022-10-09T10:15:57.001Z,1.92
2022-10-09T10:18:30.547Z,2.97
2022-10-09T10:21:17.966Z,4.28
2022-10-09T10:23:56.198Z,5.18
2022-10-09T10:26:47.077Z,2.15
2022-10-09T10:29:33.606Z,0.82
2022-10-09T10:32:13.312Z,1.17
2022-10-09T10:35:12.157Z,2.17
2022-10-09T10:37:51.970Z,0.93
2022-10-09T10:40:39.433Z,7.22
2022-10-09T10:43:12.416Z,1.60
2022-10-09T10:45:48.835Z,0.20
2022-10-09T10:48:49.677Z,0.08
2022-10-09T10:51:32.679Z,2.28
2022-10-09T10:54:15.103Z,1.70
2022-10-09T10:56:48.583Z,0.77
2022-10-09T10:59:37.498Z,1.45
2022-10-09T11:02:19.662Z,2.88
2022-10-09T11:05:16.192Z,0.00
2022-10-09T11:08:08.210Z,5.68
2022-10-09T11:11:13.834Z,0.40
2022-10-09T11:13:57.876Z,1.63
2022-10-09T11:16:45.466Z,2.00
2022-10-09T11:19:48.100Z,0.38
2022-10-09T11:22:30.469Z,0.65
2022-10-09T11:25:15.955Z,4.20
2022-10-09T11:27:52.090Z,0.25
2022-10-09T11:30:22.890Z,8.05
2022-10-09T11:32:56.000Z,0.50
2022-10-09T11:35:30.337Z,11.75
2022-10-09T11:38:17.347Z,0.75
2022-10-09T11:40:48.049Z,3.22
2022-10-09T11:43:27.419Z,1.23
2022-10-09T11:46:20.083Z,0.70
2022-10-09T11:48:56.184Z,0.50
2022-10-09T11:51:36.660Z,0.70
2022-10-09T11:54:12.089Z,7.03
2022-10-09T11:56:57.619Z,1.55
2022-10-09T11:59:39.104Z,1.85
2022-10-09T12:02:26.748Z,1.58
2022-10-09T12:04:58.094Z,0.65
2022-10-09T12:10:35.107Z,0.85
2022-10-09T12:13:09.710Z,1.25
2022-10-09T12:15:52.217Z,0.32
2022-10-09T12:18:27.657Z,1.55
2022-10-09T12:21:00.844Z,4.18
2022-10-09T12:23:35.321Z,0.52
2022-10-09T12:26:06.350Z,1.02
2022-10-09T12:29:06.517Z,0.95
2022-10-09T12:31:43.400Z,0.65
2022-10-09T12:34:36.006Z,1.63
2022-10-09T12:37:34.068Z,0.75
2022-10-09T12:40:22.923Z,0.17
2022-10-09T12:42:55.272Z,0.32
2022-10-09T12:45:31.886Z,1.70
2022-10-09T12:48:12.249Z,0.60
2022-10-09T12:50:43.286Z,1.98
2022-10-09T12:53:33.885Z,1.73
2022-10-09T12:56:05.241Z,8.60
2022-10-09T12:58:42.556Z,0.43
2022-10-09T13:01:18.701Z,6.72
2022-10-09T13:03:59.955Z,5.82
2022-10-09T13:06:49.341Z,3.45
2022-10-09T13:09:36.302Z,0.10
2022-10-09T13:12:39.331Z,1.40
2022-10-09T13:15:31.601Z,3.85
2022-10-09T13:18:02.491Z,1.50
2022-10-09T13:20:34.507Z,0.98
2022-10-09T13:23:07.759Z,2.50
2022-10-09T13:25:44.706Z,6.35
2022-10-09T13:28:21.928Z,3.03
2022-10-09T13:30:52.836Z,6.75
2022-10-09T13:33:23.536Z,0.40
2022-10-09T13:35:54.254Z,1.17
2022-10-09T13:38:25.259Z,0.57
2022-10-09T13:40:56.197Z,0.50
2022-10-09T13:43:28.701Z,0.43
2022-10-09T13:45:59.890Z,2.15
2022-10-09T13:48:32.521Z,2.20
2022-10-09T13:51:02.947Z,2.88
2022-10-09T13:53:33.993Z,4.55
2022-10-09T13:56:04.514Z,2.58
2022-10-09T14:01:05.250Z,6.18
2022-10-09T14:03:35.707Z,0.10
2022-10-09T14:06:06.050Z,2.40
2022-10-09T14:11:06.211Z,3.25
2022-10-09T14:13:36.712Z,2.45
2022-10-09T14:18:37.912Z,0.10
2022-10-09T14:21:15.867Z,6.50
2022-10-09T14:23:46.600Z,0.28
2022-10-09T14:26:17.062Z,0.95
2022-10-09T14:31:20.844Z,0.08
2022-10-09T14:33:51.745Z,0.20
2022-10-09T14:36:22.270Z,0.00
2022-10-09T14:38:52.886Z,1.17
2022-10-09T14:43:59.076Z,1.15
2022-10-09T14:46:31.478Z,0.10
2022-10-09T14:49:08.509Z,2.10
2022-10-09T14:51:41.162Z,0.73
2022-10-09T14:54:13.744Z,1.35
2022-10-09T14:56:44.190Z,0.75
2022-10-09T14:59:15.794Z,1.95
2022-10-09T15:01:46.260Z,0.20
2022-10-09T15:04:17.432Z,1.30
2022-10-09T15:06:47.967Z,0.28
2022-10-09T15:11:48.934Z,3.33
2022-10-09T15:14:19.699Z,3.17
2022-10-09T15:16:50.779Z,0.80
2022-10-09T15:19:21.240Z,0.82
2022-10-09T15:21:51.710Z,0.25
2022-10-09T15:24:22.025Z,0.40
2022-10-09T15:26:52.392Z,0.47
2022-10-09T15:29:22.890Z,4.90
2022-10-09T15:31:53.339Z,0.47
2022-10-09T15:34:23.942Z,5.93
2022-10-09T15:36:54.482Z,2.35
2022-10-09T15:41:55.399Z,2.92
2022-10-09T15:46:56.073Z,0.95
2022-10-09T15:49:26.630Z,0.65
2022-10-09T15:51:57.026Z,4.13
2022-10-09T15:54:29.330Z,0.40
2022-10-09T15:56:59.704Z,3.55
2022-10-09T15:59:32.045Z,0.75
2022-10-09T16:02:02.670Z,10.18
2022-10-09T16:04:33.195Z,0.80
2022-10-09T16:09:38.242Z,0.10
2022-10-09T16:12:08.710Z,0.80
2022-10-09T16:14:39.980Z,2.17
2022-10-09T16:17:11.481Z,0.45
2022-10-09T16:20:02.407Z,7.30
2022-10-09T16:22:32.943Z,0.70
2022-10-09T16:25:05.444Z,2.90
2022-10-09T16:27:36.283Z,1.88
2022-10-09T16:30:07.414Z,3.58
2022-10-09T16:32:37.810Z,0.82
2022-10-09T16:35:08.845Z,5.07
2022-10-09T16:37:39.173Z,1.80
2022-10-09T16:40:10.016Z,2.15
2022-10-09T16:42:40.534Z,6.85
2022-10-09T16:45:11.731Z,2.30
2022-10-09T16:47:44.134Z,1.85
2022-10-09T16:50:14.818Z,6.25
2022-10-09T16:55:19.086Z,1.85
2022-10-09T16:57:49.997Z,1.05
2022-10-09T17:00:21.266Z,3.78
2022-10-09T17:02:52.193Z,12.60
2022-10-09T17:05:22.759Z,3.85
2022-10-09T17:07:53.292Z,1.13
2022-10-09T17:10:23.918Z,0.40
2022-10-09T17:12:54.407Z,1.00
2022-10-09T17:15:24.749Z,1.73
2022-10-09T17:17:55.246Z,2.45
2022-10-09T17:20:25.693Z,1.27
2022-10-09T17:22:55.838Z,2.97
2022-10-09T17:25:26.141Z,5.55
2022-10-09T17:27:57.514Z,3.72
2022-10-09T17:30:28.751Z,7.72
2022-10-09T17:32:59.674Z,0.35
2022-10-09T17:35:30.185Z,2.42
2022-10-09T17:38:00.608Z,3.03
2022-10-09T17:43:00.621Z,0.57
2022-10-09T17:48:00.778Z,0.38
2022-10-09T17:50:31.571Z,0.45
2022-10-09T17:53:02.566Z,0.20
2022-10-09T17:55:33.416Z,0.25
2022-10-09T17:58:03.846Z,1.05
2022-10-09T18:00:34.929Z,5.70
2022-10-09T18:03:05.886Z,1.25
2022-10-09T18:05:43.160Z,0.63
2022-10-09T18:08:14.779Z,1.38
2022-10-09T18:10:45.833Z,1.48
2022-10-09T18:13:16.480Z,0.35
2022-10-09T18:15:46.905Z,0.60
2022-10-09T18:20:47.330Z,0.57
2022-10-09T18:23:22.344Z,0.17
2022-10-09T18:25:53.374Z,0.70
2022-10-09T18:28:24.016Z,4.45
2022-10-09T18:30:54.997Z,4.15
2022-10-09T18:33:25.550Z,0.30
2022-10-09T18:35:56.059Z,0.28
2022-10-09T18:40:56.207Z,0.10
2022-10-09T18:43:26.558Z,0.82
2022-10-09T18:45:57.674Z,0.50
2022-10-09T18:48:29.996Z,2.33
2022-10-09T18:51:01.047Z,0.22
2022-10-09T18:53:33.107Z,1.98
2022-10-09T18:56:04.320Z,0.13
2022-10-09T18:58:36.637Z,0.55
2022-10-09T19:01:08.256Z,0.82
2022-10-09T19:03:39.076Z,1.23
2022-10-09T19:06:09.975Z,0.82
2022-10-09T19:08:40.573Z,0.13
2022-10-09T19:11:11.321Z,0.80
2022-10-09T19:13:42.666Z,0.10
2022-10-09T19:16:13.471Z,1.33
2022-10-09T19:18:44.204Z,0.98
2022-10-09T19:21:16.541Z,0.57
2022-10-09T19:23:49.889Z,0.00
2022-10-09T19:26:21.826Z,0.65
2022-10-09T19:28:52.809Z,1.88
2022-10-09T19:31:23.560Z,0.60
2022-10-09T19:33:54.088Z,1.10
2022-10-09T19:36:24.738Z,1.33
2022-10-09T19:38:56.281Z,1.02
2022-10-09T19:41:26.794Z,2.25
2022-10-09T19:46:27.812Z,1.13
2022-10-09T19:48:58.793Z,0.73
2022-10-09T19:51:29.761Z,2.08
2022-10-09T19:54:00.530Z,2.08
2022-10-09T19:56:34.475Z,0.10
2022-10-09T19:59:07.248Z,0.75
2022-10-09T20:01:39.547Z,1.50
2022-10-09T20:04:12.541Z,2.28
2022-10-09T20:06:44.423Z,1.42
2022-10-09T20:09:14.951Z,1.25
2022-10-09T20:11:45.638Z,1.10
2022-10-09T20:14:16.462Z,1.73
2022-10-09T20:16:47.041Z,0.80
2022-10-09T20:19:17.757Z,1.08
2022-10-09T20:21:48.445Z,3.40
2022-10-09T20:24:19.002Z,0.40
2022-10-09T20:26:49.728Z,0.63
2022-10-09T20:29:20.339Z,0.22
2022-10-09T20:31:51.029Z,1.40
2022-10-09T20:34:21.655Z,6.43
2022-10-09T20:36:52.113Z,0.40
2022-10-09T20:41:53.641Z,1.50
2022-10-09T20:44:24.092Z,3.17
2022-10-09T20:49:28.861Z,0.57
2022-10-09T20:51:59.479Z,0.75
2022-10-09T20:54:31.838Z,1.05
2022-10-09T20:57:02.506Z,0.30
2022-10-09T20:59:32.989Z,1.80
2022-10-09T21:04:34.046Z,0.20
2022-10-09T21:07:04.587Z,2.60
2022-10-09T21:09:35.083Z,0.40
2022-10-09T21:14:35.484Z,2.35
2022-10-09T21:17:06.017Z,1.33
2022-10-09T21:19:36.590Z,1.98
2022-10-09T21:22:07.395Z,6.13
2022-10-09T21:24:38.440Z,0.88
2022-10-09T21:27:09.097Z,5.97
2022-10-09T21:29:39.542Z,0.85
2022-10-09T21:32:09.926Z,5.55
2022-10-09T21:34:40.469Z,1.90
2022-10-09T21:39:58.177Z,1.42
2022-10-09T21:42:28.776Z,1.38
2022-10-09T21:44:59.115Z,1.27
2022-10-09T21:49:59.543Z,2.50
2022-10-09T21:54:59.644Z,2.90
2022-10-09T21:59:59.695Z,1.40
2022-10-09T22:02:30.596Z,3.05
2022-10-09T22:05:01.397Z,1.85
2022-10-09T22:07:34.850Z,7.53
2022-10-09T22:10:06.451Z,2.65
2022-10-09T22:12:37.028Z,7.65
2022-10-09T22:17:38.131Z,4.13
2022-10-09T22:20:09.051Z,2.83
2022-10-09T22:22:39.768Z,4.80
2022-10-09T22:25:10.730Z,7.65
2022-10-09T22:27:41.135Z,1.85
2022-10-09T22:30:12.089Z,3.25
2022-10-09T22:32:42.839Z,4.03
2022-10-09T22:35:13.333Z,2.47
2022-10-09T22:40:14.084Z,0.80
2022-10-09T22:42:44.567Z,8.85
2022-10-09T22:45:14.838Z,4.10
2022-10-09T22:50:14.965Z,6.95
2022-10-09T22:52:45.440Z,3.38
2022-10-09T22:55:15.885Z,5.00
2022-10-09T23:00:17.405Z,3.92
2022-10-09T23:02:48.499Z,7.40
2022-10-09T23:05:19.187Z,2.67
2022-10-09T23:07:49.693Z,1.95
2022-10-09T23:10:20.192Z,7.07
2022-10-09T23:15:20.911Z,5.78
2022-10-09T23:17:51.414Z,2.03
2022-10-09T23:20:21.900Z,2.35
2022-10-09T23:22:52.902Z,4.80
2022-10-09T23:25:23.477Z,10.25
2022-10-09T23:27:54.084Z,3.95
2022-10-09T23:32:54.828Z,4.00
2022-10-09T23:35:25.283Z,8.82
2022-10-09T23:37:56.261Z,0.30
2022-10-09T23:40:26.738Z,2.45
2022-10-09T23:45:26.806Z,6.40
2022-10-09T23:50:27.010Z,1.23
2022-10-09T23:52:57.491Z,6.55
2022-10-09T23:55:28.023Z,4.60
2022-10-09T23:57:58.765Z,5.15
